createdAt,value
2022-08-26T00:00:06.961Z,96176.63
2022-08-26T00:03:37.512Z,96173.08
2022-08-26T00:10:40.239Z,96169.61
2022-08-26T00:17:15.702Z,96167.71
2022-08-26T00:20:28.940Z,96165.67
2022-08-26T00:23:51.388Z,96164.11
2022-08-26T00:27:19.340Z,96163.52
2022-08-26T00:30:37.878Z,96161.45
2022-08-26T00:34:12.947Z,96165.93
2022-08-26T00:37:24.050Z,96159.59
2022-08-26T00:44:29.022Z,96156.52
2022-08-26T00:47:31.910Z,96159.66
2022-08-26T00:51:03.369Z,96158.49
2022-08-26T00:54:20.868Z,96158.59
2022-08-26T00:57:38.932Z,96157.34
2022-08-26T01:00:56.516Z,96158.92
2022-08-26T01:03:27.951Z,96156.68
2022-08-26T01:06:01.250Z,96160.55
2022-08-26T01:08:31.350Z,96159.91
2022-08-26T01:11:01.598Z,96160.56
2022-08-26T01:13:33.437Z,96162.80
2022-08-26T01:16:06.720Z,96162.80
2022-08-26T01:18:36.531Z,96162.10
2022-08-26T01:21:22.243Z,96159.17
2022-08-26T01:23:57.479Z,96159.54
2022-08-26T01:26:33.562Z,96163.02
2022-08-26T01:29:06.062Z,96157.81
2022-08-26T01:31:43.623Z,96159.48
2022-08-26T01:34:32.791Z,96157.22
2022-08-26T01:37:15.482Z,96156.08
2022-08-26T01:40:14.166Z,96154.80
2022-08-26T01:42:46.593Z,96157.91
2022-08-26T01:45:19.880Z,96155.25
2022-08-26T01:47:56.868Z,96160.54
2022-08-26T01:50:31.126Z,96161.65
2022-08-26T01:53:06.388Z,96159.98
2022-08-26T01:55:43.370Z,96157.83
2022-08-26T01:58:15.117Z,96159.71
2022-08-26T02:01:04.955Z,96160.26
2022-08-26T02:03:51.064Z,96159.17
2022-08-26T02:06:22.142Z,96157.84
2022-08-26T02:08:58.132Z,96158.59
2022-08-26T02:11:26.738Z,96159.34
2022-08-26T02:14:02.618Z,96157.05
2022-08-26T02:16:39.723Z,96157.46
2022-08-26T02:19:17.530Z,96161.56
2022-08-26T02:21:51.248Z,96161.23
2022-08-26T02:24:27.302Z,96162.15
2022-08-26T02:27:02.659Z,96163.23
2022-08-26T02:29:38.614Z,96161.61
2022-08-26T02:32:10.377Z,96163.27
2022-08-26T02:34:42.961Z,96161.36
2022-08-26T02:37:17.615Z,96161.09
2022-08-26T02:39:46.171Z,96165.92
2022-08-26T02:42:18.502Z,96162.82
2022-08-26T02:44:53.517Z,96163.61
2022-08-26T02:47:28.926Z,96159.78
2022-08-26T02:50:28.921Z,96159.41
2022-08-26T02:57:40.921Z,96157.70
2022-08-26T03:00:59.922Z,96153.19
2022-08-26T03:07:53.267Z,96159.04
2022-08-26T03:18:15.282Z,96159.73
2022-08-26T03:34:08.398Z,96168.15
2022-08-26T03:44:27.917Z,96163.37
2022-08-26T03:47:57.894Z,96167.02
2022-08-26T03:51:10.962Z,96165.67
2022-08-26T03:54:23.932Z,96165.71
2022-08-26T04:04:38.919Z,96167.95
2022-08-26T04:35:06.245Z,96163.73
2022-08-26T04:42:41.893Z,96166.04
2022-08-26T04:55:12.955Z,96160.02
2022-08-26T04:58:26.391Z,96165.26
2022-08-26T05:01:49.066Z,96167.05
2022-08-26T05:12:23.945Z,96172.39
2022-08-26T05:25:35.956Z,96177.98
2022-08-26T05:28:21.946Z,96180.73
2022-08-26T05:40:55.974Z,96173.77
2022-08-26T05:50:13.941Z,96177.70
2022-08-26T06:14:36.268Z,96169.48
2022-08-26T06:18:13.202Z,96172.81
2022-08-26T06:27:32.568Z,96174.15
2022-08-26T06:34:02.246Z,96176.53
2022-08-26T06:37:16.455Z,96172.64
2022-08-26T06:47:33.933Z,96182.55
2022-08-26T06:50:19.780Z,96179.48
2022-08-26T06:52:50.804Z,96177.26
2022-08-26T06:55:46.512Z,96181.29
2022-08-26T06:58:17.090Z,96177.53
2022-08-26T07:00:47.413Z,96179.55
2022-08-26T07:03:15.603Z,96179.74
2022-08-26T07:05:46.189Z,96178.16
2022-08-26T07:08:16.451Z,96179.44
2022-08-26T07:10:45.150Z,96174.55
2022-08-26T07:13:13.154Z,96171.20
2022-08-26T07:15:42.231Z,96170.29
2022-08-26T07:18:10.238Z,96168.73
2022-08-26T07:20:42.324Z,96166.89
2022-08-26T07:23:11.773Z,96162.20
2022-08-26T07:25:42.234Z,96160.14
2022-08-26T07:28:12.411Z,96156.35
2022-08-26T07:30:41.178Z,96158.98
2022-08-26T07:33:09.864Z,96154.04
2022-08-26T07:35:39.366Z,96157.77
2022-08-26T07:38:08.414Z,96152.34
2022-08-26T07:40:37.760Z,96154.40
2022-08-26T07:43:09.703Z,96149.21
2022-08-26T07:45:38.274Z,96148.73
2022-08-26T07:48:06.826Z,96147.84
2022-08-26T07:50:49.432Z,96147.55
2022-08-26T07:53:19.555Z,96150.46
2022-08-26T07:55:48.638Z,96146.91
2022-08-26T07:58:19.046Z,96147.84
2022-08-26T08:00:47.680Z,96145.80
2022-08-26T08:03:16.260Z,96143.25
2022-08-26T08:05:46.415Z,96139.31
2022-08-26T08:08:26.699Z,96137.01
2022-08-26T08:10:57.160Z,96137.79
2022-08-26T08:13:25.399Z,96135.16
2022-08-26T08:15:53.401Z,96130.38
2022-08-26T08:18:23.238Z,96126.83
2022-08-26T08:20:59.243Z,96126.48
2022-08-26T08:23:33.134Z,96126.15
2022-08-26T08:26:08.404Z,96117.48
2022-08-26T08:28:37.896Z,96118.77
2022-08-26T08:31:06.927Z,96117.20
2022-08-26T08:33:35.383Z,96109.54
2022-08-26T08:36:06.153Z,96109.00
2022-08-26T08:38:37.382Z,96113.41
2022-08-26T08:41:05.683Z,96114.84
2022-08-26T08:43:42.329Z,96112.65
2022-08-26T08:46:14.325Z,96106.46
2022-08-26T08:48:48.333Z,96102.79
2022-08-26T08:51:29.801Z,96095.88
2022-08-26T08:54:00.112Z,96096.02
2022-08-26T08:56:39.157Z,96100.68
2022-08-26T08:59:24.098Z,96099.86
2022-08-26T09:02:26.608Z,96097.91
2022-08-26T09:05:15.322Z,96095.58
2022-08-26T09:07:48.265Z,96095.02
2022-08-26T09:10:39.795Z,96093.52
2022-08-26T09:13:13.707Z,96092.56
2022-08-26T09:16:21.704Z,96091.21
2022-08-26T09:19:24.010Z,96093.46
2022-08-26T09:21:56.923Z,96087.77
2022-08-26T09:24:28.563Z,96079.45
2022-08-26T09:26:59.234Z,96076.55
2022-08-26T09:29:32.876Z,96077.20
2022-08-26T09:32:22.069Z,96077.36
2022-08-26T09:35:23.853Z,96070.13
2022-08-26T09:37:53.013Z,96069.13
2022-08-26T09:40:28.338Z,96069.46
2022-08-26T09:43:22.862Z,96063.35
2022-08-26T09:46:15.920Z,96063.73
2022-08-26T09:48:44.019Z,96061.04
2022-08-26T09:51:30.400Z,96059.14
2022-08-26T09:54:02.065Z,96063.98
2022-08-26T09:56:34.657Z,96064.10
2022-08-26T09:59:04.630Z,96058.14
2022-08-26T10:01:41.867Z,96054.06
2022-08-26T10:04:20.652Z,96056.73
2022-08-26T10:07:29.245Z,96059.98
2022-08-26T10:09:59.947Z,96057.09
2022-08-26T10:12:28.267Z,96055.90
2022-08-26T10:15:01.996Z,96054.92
2022-08-26T10:18:01.179Z,96057.31
2022-08-26T10:20:38.325Z,96054.49
2022-08-26T10:23:15.441Z,96049.73
2022-08-26T10:26:02.071Z,96048.29
2022-08-26T10:28:39.404Z,96047.20
2022-08-26T10:31:40.933Z,96046.23
2022-08-26T10:34:12.541Z,96047.07
2022-08-26T10:37:14.151Z,96047.21
2022-08-26T10:39:57.312Z,96039.57
2022-08-26T10:42:35.551Z,96042.48
2022-08-26T10:45:11.979Z,96039.13
2022-08-26T10:48:01.386Z,96034.88
2022-08-26T10:50:33.118Z,96033.71
2022-08-26T10:53:26.527Z,96032.17
2022-08-26T10:56:15.703Z,96032.33
2022-08-26T10:59:04.413Z,96024.80
2022-08-26T11:01:43.379Z,96020.32
2022-08-26T11:04:23.770Z,96017.15
2022-08-26T11:07:22.625Z,96017.00
2022-08-26T11:09:51.148Z,96013.92
2022-08-26T11:12:53.420Z,96015.97
2022-08-26T11:16:02.474Z,96013.05
2022-08-26T11:18:41.193Z,96011.83
2022-08-26T11:21:44.179Z,96014.70
2022-08-26T11:24:44.081Z,96011.68
2022-08-26T11:27:52.049Z,96016.88
2022-08-26T11:30:42.706Z,96018.70
2022-08-26T11:33:51.328Z,96018.31
2022-08-26T11:36:40.135Z,96018.27
2022-08-26T11:39:29.548Z,96017.84
2022-08-26T11:42:25.363Z,96014.39
2022-08-26T11:45:04.799Z,96011.77
2022-08-26T11:47:34.042Z,96008.49
2022-08-26T11:50:17.419Z,96009.30
2022-08-26T11:52:56.479Z,96002.98
2022-08-26T11:55:25.463Z,95997.69
2022-08-26T11:57:57.638Z,95994.05
2022-08-26T12:00:33.886Z,95992.22
2022-08-26T12:03:42.642Z,95992.27
2022-08-26T12:13:28.605Z,95978.66
2022-08-26T12:16:04.744Z,95979.34
2022-08-26T12:18:38.561Z,95976.25
2022-08-26T12:21:15.016Z,95979.59
2022-08-26T12:23:47.190Z,95982.05
2022-08-26T12:26:34.731Z,95977.09
2022-08-26T12:29:26.921Z,95969.42
2022-08-26T12:32:13.019Z,95967.95
2022-08-26T12:34:44.562Z,95963.90
2022-08-26T12:37:15.448Z,95966.69
2022-08-26T12:39:45.049Z,95963.20
2022-08-26T12:42:43.055Z,95960.94
2022-08-26T12:45:11.159Z,95963.77
2022-08-26T12:47:44.222Z,95963.67
2022-08-26T12:50:31.799Z,95964.00
2022-08-26T12:53:05.203Z,95958.04
2022-08-26T12:55:44.309Z,95958.05
2022-08-26T12:58:33.963Z,95958.61
2022-08-26T13:01:22.567Z,95957.94
2022-08-26T13:03:53.812Z,95959.18
2022-08-26T13:06:32.138Z,95950.43
2022-08-26T13:09:40.035Z,95948.60
2022-08-26T13:12:14.289Z,95948.38
2022-08-26T13:14:47.456Z,95943.96
2022-08-26T13:17:16.960Z,95939.61
2022-08-26T13:20:04.178Z,95940.52
2022-08-26T13:22:35.107Z,95940.67
2022-08-26T13:25:06.246Z,95938.59
2022-08-26T13:27:36.577Z,95938.45
2022-08-26T13:30:05.879Z,95934.08
2022-08-26T13:32:35.574Z,95932.11
2022-08-26T13:35:06.134Z,95929.44
2022-08-26T13:38:22.318Z,95925.74
2022-08-26T13:51:20.915Z,95927.84
2022-08-26T13:54:33.631Z,95925.84
2022-08-26T13:58:06.603Z,95927.66
2022-08-26T14:02:01.776Z,95930.56
2022-08-26T14:04:58.870Z,95928.83
2022-08-26T14:11:16.371Z,95925.96
2022-08-26T14:32:50.755Z,95905.98
2022-08-26T14:39:36.438Z,95901.94
2022-08-26T14:43:57.174Z,95896.36
2022-08-26T15:07:44.694Z,95892.90
2022-08-26T15:11:06.633Z,95897.13
2022-08-26T15:14:35.485Z,95894.05
2022-08-26T15:18:08.265Z,95890.74
2022-08-26T15:27:34.446Z,95882.74
2022-08-26T15:30:54.639Z,95885.89
2022-08-26T15:37:46.993Z,95883.91
2022-08-26T15:40:17.030Z,95881.17
2022-08-26T15:43:27.695Z,95878.68
2022-08-26T15:45:58.872Z,95879.61
2022-08-26T15:49:02.600Z,95877.17
2022-08-26T15:55:12.305Z,95883.86
2022-08-26T15:58:25.108Z,95885.67
2022-08-26T16:01:00.301Z,95878.63
2022-08-26T16:04:03.878Z,95875.00
2022-08-26T16:07:01.710Z,95873.16
2022-08-26T16:10:21.592Z,95871.53
2022-08-26T16:13:03.502Z,95869.61
2022-08-26T16:15:37.122Z,95871.70
2022-08-26T16:18:23.618Z,95865.50
2022-08-26T16:21:08.796Z,95868.77
2022-08-26T16:23:45.191Z,95867.06
2022-08-26T16:26:24.084Z,95863.34
2022-08-26T16:28:54.554Z,95866.95
2022-08-26T16:31:22.971Z,95864.67
2022-08-26T16:33:55.012Z,95865.30
2022-08-26T16:37:13.999Z,95868.62
2022-08-26T16:39:44.957Z,95867.33
2022-08-26T16:42:13.787Z,95870.10
2022-08-26T16:44:45.444Z,95870.69
2022-08-26T16:47:16.068Z,95865.63
2022-08-26T16:49:45.256Z,95863.17
2022-08-26T16:52:14.114Z,95866.59
2022-08-26T16:54:42.596Z,95863.12
2022-08-26T16:57:51.757Z,95867.48
2022-08-26T17:00:41.669Z,95868.10
2022-08-26T17:03:53.287Z,95871.73
2022-08-26T17:06:49.724Z,95867.98
2022-08-26T17:10:18.676Z,95871.30
2022-08-26T17:13:28.952Z,95873.58
2022-08-26T17:16:07.558Z,95874.59
2022-08-26T17:18:37.333Z,95876.40
2022-08-26T17:21:08.700Z,95878.12
2022-08-26T17:23:37.811Z,95876.36
2022-08-26T17:26:06.031Z,95879.53
2022-08-26T17:28:35.102Z,95879.20
2022-08-26T17:31:05.164Z,95877.41
2022-08-26T17:33:39.505Z,95880.21
2022-08-26T17:36:09.534Z,95881.25
2022-08-26T17:38:38.440Z,95877.81
2022-08-26T17:41:14.848Z,95878.01
2022-08-26T17:43:42.857Z,95879.35
2022-08-26T17:46:12.930Z,95877.23
2022-08-26T17:48:41.776Z,95881.23
2022-08-26T17:51:17.208Z,95883.56
2022-08-26T17:54:12.230Z,95889.66
2022-08-26T17:56:40.312Z,95889.03
2022-08-26T17:59:16.942Z,95887.47
2022-08-26T18:01:48.001Z,95889.35
2022-08-26T18:04:36.545Z,95890.54
2022-08-26T18:07:09.044Z,95888.95
2022-08-26T18:09:37.106Z,95887.98
2022-08-26T18:12:15.887Z,95886.91
2022-08-26T18:14:47.670Z,95892.20
2022-08-26T18:17:19.416Z,95888.99
2022-08-26T18:19:48.013Z,95888.89
2022-08-26T18:22:19.621Z,95888.90
2022-08-26T18:24:57.373Z,95889.48
2022-08-26T18:27:27.590Z,95886.06
2022-08-26T18:30:03.230Z,95889.17
2022-08-26T18:33:17.953Z,95887.23
2022-08-26T18:46:41.918Z,95890.88
2022-08-26T18:50:39.883Z,95892.56
2022-08-26T18:57:59.876Z,95884.19
2022-08-26T19:11:31.452Z,95890.77
2022-08-26T19:14:29.847Z,95887.55
2022-08-26T19:17:45.922Z,95889.20
2022-08-26T19:28:25.873Z,95894.34
2022-08-26T19:35:14.895Z,95898.17
2022-08-26T19:38:24.897Z,95899.03
2022-08-26T19:48:22.921Z,95895.98
2022-08-26T19:51:40.234Z,95895.48
2022-08-26T19:54:09.781Z,95895.80
2022-08-26T19:56:37.822Z,95896.26
2022-08-26T19:59:43.228Z,95895.64
2022-08-26T20:03:08.186Z,95900.21
2022-08-26T20:07:02.163Z,95903.41
2022-08-26T20:10:25.048Z,95905.10
2022-08-26T20:13:51.527Z,95909.23
2022-08-26T20:17:11.306Z,95907.23
2022-08-26T20:20:34.256Z,95906.11
2022-08-26T20:27:47.244Z,95915.23
2022-08-26T20:31:04.256Z,95913.20
2022-08-26T20:34:25.285Z,95919.39
2022-08-26T20:37:49.270Z,95920.81
2022-08-26T20:41:13.230Z,95915.69
2022-08-26T20:44:33.228Z,95914.02
2022-08-26T20:51:50.307Z,95911.48
2022-08-26T20:55:16.324Z,95907.16
2022-08-26T20:58:41.544Z,95913.24
2022-08-26T21:02:06.211Z,95915.59
2022-08-26T21:05:27.300Z,95919.63
2022-08-26T21:08:44.383Z,95919.07
2022-08-26T21:12:33.659Z,95921.20
2022-08-26T21:19:11.948Z,95936.67
2022-08-26T21:22:34.712Z,95939.76
2022-08-26T21:25:46.955Z,95938.50
2022-08-26T21:28:58.857Z,95934.86
2022-08-26T21:32:12.497Z,95934.80
2022-08-26T21:35:43.908Z,95925.16
2022-08-26T21:38:56.936Z,95925.94
2022-08-26T21:42:09.939Z,95926.02
2022-08-26T21:52:07.359Z,95922.50
2022-08-26T21:55:19.926Z,95927.71
2022-08-26T21:58:32.966Z,95928.98
2022-08-26T22:01:45.932Z,95926.66
2022-08-26T22:05:02.003Z,95928.63
2022-08-26T22:11:43.917Z,95930.64
2022-08-26T22:18:19.926Z,95939.13
2022-08-26T22:21:31.928Z,95940.86
2022-08-26T22:24:43.917Z,95934.34
2022-08-26T22:31:16.979Z,95935.03
2022-08-26T22:34:25.875Z,95930.20
2022-08-26T22:37:42.945Z,95927.42
2022-08-26T22:40:57.944Z,95922.86
2022-08-26T22:44:03.932Z,95924.66
2022-08-26T22:50:38.986Z,95923.31
2022-08-26T22:53:51.905Z,95923.33
2022-08-26T22:57:32.659Z,95922.32
2022-08-26T23:00:51.021Z,95924.40
2022-08-26T23:10:49.944Z,95928.89
2022-08-26T23:13:55.952Z,95930.86
2022-08-26T23:17:10.027Z,95933.65
2022-08-26T23:20:23.897Z,95934.84
2022-08-26T23:26:58.980Z,95936.79
2022-08-26T23:36:39.478Z,95926.84
2022-08-26T23:43:01.952Z,95921.70
2022-08-26T23:46:35.345Z,95920.25
2022-08-26T23:52:56.909Z,95919.75
